Time;durP1;ratioP1;P1;durP2;ratioP2;P2;SDS_P1;SDS_P2;PMS_P1;PMS_P2;Temp;Humidity;BMP_temperature;BMP_pressure;BME280_temperature;BME280_humidity;BME280_pressure;Samples;Min_cycle;Max_cycle;Signal;HPM_P1;HPM_P2
2021/03/05 00:00:07;;;;;;;21.13;13.57;;;;;;;4.52;71.06;100844.03;5063221;28;20433;-76
2021/03/05 00:02:34;;;;;;;25.07;13.50;;;;;;;4.66;70.51;100853.84;5062921;28;20484;-75
2021/03/05 00:05:00;;;;;;;26.13;14.30;;;;;;;4.64;70.86;100857.53;5063442;28;20492;-75
2021/03/05 00:07:27;;;;;;;19.43;12.73;;;;;;;4.60;70.78;100864.78;5062848;28;20473;-75
2021/03/05 00:09:53;;;;;;;22.60;13.70;;;;;;;4.58;70.37;100857.84;5063604;28;20547;-75
2021/03/05 00:12:19;;;;;;;21.20;12.60;;;;;;;4.52;70.72;100865.22;5062250;28;20485;-75
2021/03/05 00:14:45;;;;;;;24.20;15.00;;;;;;;4.62;70.41;100867.34;5063125;28;20457;-75
2021/03/05 00:17:12;;;;;;;20.33;13.40;;;;;;;4.51;70.72;100870.59;5062330;28;20565;-75
2021/03/05 00:19:38;;;;;;;22.13;14.00;;;;;;;4.50;70.54;100877.69;5063011;28;20448;-75
2021/03/05 00:22:05;;;;;;;26.17;15.70;;;;;;;4.38;70.66;100873.09;5062052;28;20979;-75
2021/03/05 00:24:32;;;;;;;32.13;17.37;;;;;;;4.57;69.79;100877.34;5062376;28;20476;-76
2021/03/05 00:26:58;;;;;;;28.47;17.50;;;;;;;4.55;69.86;100885.38;5061708;28;20505;-76
2021/03/05 00:29:24;;;;;;;29.33;18.53;;;;;;;4.55;69.63;100876.56;5062482;28;20465;-75
2021/03/05 00:31:51;;;;;;;29.23;16.50;;;;;;;4.39;69.83;100882.72;5062146;28;20552;-76
2021/03/05 00:34:17;;;;;;;28.80;17.60;;;;;;;4.74;69.17;100885.19;5062578;28;20449;-75
2021/03/05 00:36:43;;;;;;;29.13;18.17;;;;;;;4.77;69.09;100889.44;5062368;28;20485;-75
2021/03/05 00:39:09;;;;;;;29.57;16.90;;;;;;;4.60;69.52;100893.06;5062817;28;20472;-76
2021/03/05 00:41:36;;;;;;;31.10;18.50;;;;;;;4.66;69.06;100898.84;5062112;28;20489;-75
2021/03/05 00:44:03;;;;;;;29.73;17.13;;;;;;;4.74;68.79;100900.22;5061246;28;20442;-75
2021/03/05 00:46:29;;;;;;;28.70;18.47;;;;;;;4.63;68.91;100899.03;5062327;28;21053;-75
2021/03/05 00:48:55;;;;;;;36.03;18.67;;;;;;;4.56;68.94;100888.88;5062556;28;20473;-75
2021/03/05 00:51:22;;;;;;;34.20;19.30;;;;;;;4.94;68.33;100896.44;5061874;28;20502;-75
2021/03/05 00:53:48;;;;;;;33.97;18.47;;;;;;;4.61;68.91;100900.06;5062425;28;20520;-75
2021/03/05 00:56:14;;;;;;;30.30;17.97;;;;;;;4.62;69.25;100909.72;5061525;28;20544;-75
2021/03/05 00:58:41;;;;;;;29.50;17.97;;;;;;;4.67;68.64;100907.66;5061319;28;20456;-75
2021/03/05 01:01:07;;;;;;;28.90;16.50;;;;;;;4.69;67.99;100911.09;5061377;28;20535;-76
2021/03/05 01:03:33;;;;;;;28.40;18.30;;;;;;;4.90;67.65;100912.50;5061965;28;20487;-75
2021/03/05 01:05:59;;;;;;;27.13;17.23;;;;;;;4.53;68.74;100911.06;5061388;28;20507;-76
2021/03/05 01:08:26;;;;;;;26.60;16.50;;;;;;;4.70;68.01;100913.66;5062539;28;20515;-76
2021/03/05 01:10:52;;;;;;;28.00;16.97;;;;;;;5.01;67.50;100919.84;5061742;28;20509;-76
2021/03/05 01:13:18;;;;;;;30.77;16.67;;;;;;;4.64;68.01;100913.16;5061361;28;20884;-75
2021/03/05 01:15:45;;;;;;;28.80;17.33;;;;;;;4.80;67.81;100911.31;5061205;28;20484;-75
2021/03/05 01:18:12;;;;;;;25.37;16.07;;;;;;;4.57;68.53;100917.94;5061990;28;21044;-75
2021/03/05 01:20:38;;;;;;;30.20;16.27;;;;;;;4.68;68.44;100919.97;5061644;28;20612;-75
2021/03/05 01:23:04;;;;;;;22.67;14.57;;;;;;;4.64;68.49;100916.63;5052911;28;21015;-75
2021/03/05 01:25:32;;;;;;;27.70;14.70;;;;;;;4.58;68.71;100929.38;5061627;28;20498;-76
2021/03/05 01:27:59;;;;;;;26.10;16.13;;;;;;;4.56;68.85;100932.09;5061259;28;20457;-75
2021/03/05 01:30:25;;;;;;;23.83;15.90;;;;;;;4.41;69.08;100925.00;5061233;28;20529;-76
2021/03/05 01:32:52;;;;;;;21.30;14.10;;;;;;;4.60;68.32;100936.31;5062003;28;20503;-75
2021/03/05 01:35:20;;;;;;;22.13;14.37;;;;;;;4.58;68.76;100934.66;5060005;28;20488;-75
2021/03/05 01:37:46;;;;;;;25.17;14.43;;;;;;;4.71;68.37;100938.34;5062305;28;20551;-76
2021/03/05 01:40:15;;;;;;;25.33;15.33;;;;;;;4.64;68.66;100939.63;5061198;28;20927;-75
2021/03/05 01:42:42;;;;;;;20.03;13.07;;;;;;;4.82;67.84;100943.88;5061410;28;20445;-75
2021/03/05 01:45:11;;;;;;;22.77;14.50;;;;;;;4.85;68.15;100943.72;5060264;28;20524;-75
2021/03/05 01:47:37;;;;;;;22.17;13.10;;;;;;;4.88;67.47;100948.00;5061877;28;20746;-75
2021/03/05 01:50:09;;;;;;;15.47;9.87;;;;;;;4.38;66.55;100946.38;5061322;28;20473;-75
2021/03/05 01:52:35;;;;;;;15.80;8.20;;;;;;;4.24;65.98;100944.47;5060582;28;20571;-75
2021/03/05 01:55:01;;;;;;;18.60;7.27;;;;;;;4.27;65.57;100944.28;5061398;28;20493;-75
2021/03/05 01:57:27;;;;;;;11.50;6.57;;;;;;;4.25;65.01;100943.50;5059792;28;20580;-76
2021/03/05 01:59:54;;;;;;;7.47;5.73;;;;;;;4.08;63.96;100955.88;5061368;28;20440;-75
2021/03/05 02:02:20;;;;;;;8.83;5.63;;;;;;;4.08;63.76;100947.06;5060411;28;20556;-75
2021/03/05 02:04:46;;;;;;;7.57;5.13;;;;;;;3.86;63.42;100952.66;5061240;28;20481;-75
2021/03/05 02:07:13;;;;;;;6.03;4.27;;;;;;;4.10;62.84;100955.78;5060276;28;20500;-75
2021/03/05 02:09:39;;;;;;;7.13;5.00;;;;;;;3.66;63.45;100957.16;5061243;28;20528;-75
2021/03/05 02:12:05;;;;;;;6.63;4.90;;;;;;;3.69;62.28;100962.28;5060264;28;20551;-74
2021/03/05 02:14:32;;;;;;;5.70;3.70;;;;;;;3.62;61.84;100966.19;5061218;28;20480;-75
2021/03/05 02:17:06;;;;;;;7.20;4.07;;;;;;;3.77;61.57;100969.84;5060349;28;21076;-75
2021/03/05 02:20:00;;;;;;;7.67;4.13;;;;;;;3.88;61.46;100964.84;5061370;28;20445;-75
2021/03/05 02:22:47;;;;;;;7.70;3.33;;;;;;;3.80;61.51;100976.75;5060707;28;20484;-75
2021/03/05 02:25:34;;;;;;;6.17;3.90;;;;;;;3.72;61.95;100972.72;5059865;28;20519;-76
2021/03/05 02:28:48;;;;;;;4.47;3.63;;;;;;;3.79;62.08;100970.63;5059949;28;20560;-76
2021/03/05 02:31:19;;;;;;;5.13;3.30;;;;;;;3.79;62.51;100985.63;5041916;28;20483;-75
2021/03/05 02:33:49;;;;;;;14.40;3.00;;;;;;;3.93;62.73;100986.63;5060724;28;20465;-75
2021/03/05 02:36:19;;;;;;;15.50;4.20;;;;;;;3.81;62.31;100997.84;5059504;28;20484;-75
2021/03/05 02:38:55;;;;;;;6.20;2.33;;;;;;;3.86;61.63;100998.47;5060774;28;20464;-76
2021/03/05 02:41:22;;;;;;;6.80;2.40;;;;;;;3.54;60.68;100998.31;5060394;28;20496;-75
2021/03/05 02:43:49;;;;;;;3.70;2.10;;;;;;;3.51;61.16;101008.19;5060746;28;20455;-75
2021/03/05 02:46:16;;;;;;;5.37;2.30;;;;;;;3.47;61.19;101011.91;5059974;28;20476;-75
2021/03/05 02:48:45;;;;;;;7.83;2.50;;;;;;;3.19;61.41;101014.13;5061184;28;20508;-75
2021/03/05 02:51:13;;;;;;;8.40;2.90;;;;;;;3.07;61.25;101014.69;5059726;28;21006;-75
2021/03/05 02:53:41;;;;;;;3.30;2.10;;;;;;;3.01;61.55;101025.56;5060486;28;20500;-75
2021/03/05 02:56:10;;;;;;;4.87;2.40;;;;;;;3.01;60.94;101028.22;5060381;28;20996;-77
2021/03/05 02:58:39;;;;;;;3.50;2.10;;;;;;;2.90;60.97;101027.84;5059577;28;20532;-75
2021/03/05 03:01:08;;;;;;;2.47;2.23;;;;;;;2.75;61.42;101029.44;5060573;28;20504;-75
2021/03/05 03:03:36;;;;;;;4.40;2.10;;;;;;;2.74;61.05;101028.59;5060160;28;20879;-76
2021/03/05 03:06:02;;;;;;;4.80;2.20;;;;;;;2.64;61.45;101029.94;5060367;28;20496;-75
2021/03/05 03:08:28;;;;;;;3.00;1.87;;;;;;;2.58;61.82;101035.50;5060787;28;20484;-75
2021/03/05 03:10:55;;;;;;;6.13;2.27;;;;;;;2.74;61.81;101031.25;5060280;28;20511;-75
2021/03/05 03:13:21;;;;;;;4.87;2.60;;;;;;;2.37;62.01;101042.59;5061881;28;20484;-76
2021/03/05 03:15:48;;;;;;;6.22;2.08;;;;;;;2.28;62.07;101048.31;5063823;28;20504;-75
2021/03/05 03:18:15;;;;;;;2.60;2.07;;;;;;;2.45;61.98;101053.69;5063881;28;20226;-75
2021/03/05 03:20:42;;;;;;;3.20;2.10;;;;;;;2.38;61.53;101058.38;5063540;28;20480;-76
2021/03/05 03:23:09;;;;;;;2.22;1.98;;;;;;;2.30;61.98;101057.00;5063936;28;20488;-75
2021/03/05 03:25:35;;;;;;;4.53;1.83;;;;;;;2.27;62.32;101071.16;5063763;28;20317;-74
2021/03/05 03:28:01;;;;;;;3.00;2.20;;;;;;;2.24;62.28;101066.91;5063756;28;20553;-75
2021/03/05 03:30:28;;;;;;;3.88;2.60;;;;;;;2.29;62.45;101069.31;5063869;28;20293;-74
2021/03/05 03:32:54;;;;;;;3.65;1.92;;;;;;;2.12;62.84;101072.72;5064091;28;20245;-75
2021/03/05 03:35:21;;;;;;;8.43;2.22;;;;;;;2.17;62.66;101072.50;5063189;28;20236;-74
2021/03/05 03:37:48;;;;;;;5.72;2.00;;;;;;;2.13;62.68;101082.31;5063990;28;20258;-76
2021/03/05 03:40:19;;;;;;;5.63;2.60;;;;;;;2.44;62.31;101088.91;5063277;28;20198;-74
2021/03/05 03:42:46;;;;;;;2.67;2.07;;;;;;;2.34;62.45;101088.44;5063352;28;20297;-75
2021/03/05 03:45:14;;;;;;;3.17;2.25;;;;;;;1.94;63.06;101102.50;5063239;28;20496;-76
2021/03/05 03:47:41;;;;;;;7.53;2.05;;;;;;;2.15;62.97;101100.72;5063866;28;20218;-75
2021/03/05 03:50:12;;;;;;;4.82;2.67;;;;;;;1.96;63.45;101100.66;5063277;28;20704;-75
2021/03/05 03:52:42;;;;;;;3.70;2.37;;;;;;;2.26;63.06;101109.91;5063398;28;20716;-75
2021/03/05 03:55:10;;;;;;;2.30;1.90;;;;;;;1.75;63.59;101097.13;5062817;28;20468;-75
2021/03/05 03:57:39;;;;;;;4.93;2.57;;;;;;;1.98;63.42;101112.84;5062580;28;20317;-75
2021/03/05 04:00:07;;;;;;;4.57;2.28;;;;;;;1.78;63.60;101103.13;5062557;28;20975;-75
2021/03/05 04:02:33;;;;;;;2.50;2.30;;;;;;;1.76;64.10;101112.88;5063219;28;20210;-75
2021/03/05 04:05:02;;;;;;;4.75;2.35;;;;;;;1.68;64.22;101115.84;5043778;28;20320;-75
2021/03/05 04:07:29;;;;;;;2.90;2.50;;;;;;;1.68;64.20;101117.59;5043004;28;20231;-75
2021/03/05 04:09:55;;;;;;;4.53;2.20;;;;;;;1.53;64.44;101119.09;5063316;28;20621;-75
2021/03/05 04:12:25;;;;;;;7.35;2.95;;;;;;;1.35;64.86;101117.19;5062540;28;20719;-75
2021/03/05 04:14:52;;;;;;;3.42;2.60;;;;;;;1.59;64.34;101125.88;5062903;28;20206;-75
2021/03/05 04:17:18;;;;;;;4.97;2.35;;;;;;;1.38;64.93;101122.34;5062590;28;20269;-75
2021/03/05 04:19:45;;;;;;;9.75;2.53;;;;;;;1.53;64.66;101124.38;5062962;28;20256;-75
2021/03/05 04:22:13;;;;;;;4.43;2.80;;;;;;;1.14;65.01;101132.91;5062827;28;20787;-75
2021/03/05 04:24:39;;;;;;;5.22;2.80;;;;;;;1.25;65.12;101129.84;5062634;28;20593;-75
2021/03/05 04:27:07;;;;;;;2.83;2.30;;;;;;;1.41;64.33;101135.41;5061548;28;20246;-75
2021/03/05 04:29:34;;;;;;;5.97;3.17;;;;;;;1.38;64.53;101139.00;5063014;28;20187;-76
2021/03/05 04:32:00;;;;;;;5.07;3.92;;;;;;;0.99;65.91;101146.63;5061895;28;20306;-75
2021/03/05 04:34:26;;;;;;;5.63;2.70;;;;;;;1.27;65.26;101151.75;5062498;28;20245;-75
2021/03/05 04:36:52;;;;;;;3.35;2.47;;;;;;;1.31;65.19;101148.06;5062047;28;20235;-75
2021/03/05 04:39:19;;;;;;;5.05;2.97;;;;;;;1.19;65.60;101156.44;5063079;28;20225;-75
2021/03/05 04:41:45;;;;;;;5.22;2.35;;;;;;;1.26;64.96;101155.28;5061663;28;20293;-75
2021/03/05 04:44:11;;;;;;;7.72;2.53;;;;;;;0.93;66.19;101153.84;5062619;28;20301;-75
2021/03/05 04:46:38;;;;;;;3.35;2.15;;;;;;;1.18;65.68;101147.69;5061648;28;20725;-75
2021/03/05 04:49:04;;;;;;;3.60;2.13;;;;;;;1.22;65.48;101154.53;5062881;28;20202;-75
2021/03/05 04:51:31;;;;;;;2.78;2.53;;;;;;;1.01;66.00;101152.69;5061597;28;20239;-75
2021/03/05 04:53:57;;;;;;;4.90;2.60;;;;;;;1.12;65.88;101147.91;5062630;28;20230;-75
2021/03/05 04:56:23;;;;;;;4.80;2.30;;;;;;;1.19;65.57;101154.66;5062025;28;20258;-76
2021/03/05 04:58:49;;;;;;;4.57;2.88;;;;;;;1.08;65.89;101156.84;5061228;28;20237;-76
2021/03/05 05:01:16;;;;;;;6.75;2.67;;;;;;;1.11;65.82;101162.84;5061790;28;20319;-75
2021/03/05 05:03:43;;;;;;;3.65;2.60;;;;;;;0.93;66.33;101174.06;5062318;28;20222;-75
2021/03/05 05:06:09;;;;;;;9.02;2.95;;;;;;;0.74;66.80;101164.19;5061843;28;20240;-75
2021/03/05 05:08:35;;;;;;;7.43;3.08;;;;;;;0.88;66.49;101168.94;5061906;28;20234;-75
2021/03/05 05:11:01;;;;;;;4.35;2.58;;;;;;;1.05;66.07;101170.13;5061411;28;20607;-75
2021/03/05 05:13:28;;;;;;;3.42;2.35;;;;;;;1.07;66.08;101171.75;5061941;28;20258;-75
2021/03/05 05:15:54;;;;;;;6.07;3.20;;;;;;;0.96;66.38;101173.09;5060949;28;20739;-75
2021/03/05 05:18:20;;;;;;;2.88;2.42;;;;;;;1.10;66.25;101178.72;5062128;28;20218;-75
2021/03/05 05:20:47;;;;;;;3.35;2.67;;;;;;;1.15;65.90;101189.94;5060880;28;20270;-75
2021/03/05 05:23:13;;;;;;;6.65;2.75;;;;;;;0.92;66.42;101181.09;5062022;28;20301;-75
2021/03/05 05:25:40;;;;;;;4.35;2.38;;;;;;;1.40;65.37;101181.09;5060813;28;20273;-75
2021/03/05 05:28:06;;;;;;;4.45;2.25;;;;;;;0.97;66.10;101180.91;5061034;28;20217;-76
2021/03/05 05:30:32;;;;;;;5.55;2.47;;;;;;;1.08;66.13;101184.03;5061514;28;20297;-76
2021/03/05 05:32:58;;;;;;;3.88;2.45;;;;;;;1.18;65.90;101184.56;5058309;28;20238;-75
2021/03/05 05:35:24;;;;;;;5.68;2.47;;;;;;;1.22;65.68;101187.94;5056099;28;20269;-75
2021/03/05 05:37:52;;;;;;;6.07;2.63;;;;;;;1.04;66.34;101190.34;5041270;28;20246;-75
2021/03/05 05:40:18;;;;;;;3.13;2.72;;;;;;;1.05;66.33;101191.19;5047280;28;20203;-75
2021/03/05 05:42:47;;;;;;;2.25;2.05;;;;;;;1.00;66.44;101206.28;5059331;28;20662;-75
2021/03/05 05:45:13;;;;;;;3.25;2.55;;;;;;;0.86;66.82;101210.28;5060238;28;20285;-75
2021/03/05 05:47:40;;;;;;;4.95;3.03;;;;;;;0.98;66.57;101203.72;5061114;28;20232;-75
2021/03/05 05:50:08;;;;;;;6.97;2.78;;;;;;;0.77;67.30;101222.91;5059459;28;20198;-74
2021/03/05 05:52:35;;;;;;;5.15;3.20;;;;;;;1.04;66.71;101224.56;5059803;28;20234;-74
2021/03/05 05:55:04;;;;;;;4.28;2.70;;;;;;;1.02;66.84;101230.78;5060456;28;20199;-75
2021/03/05 05:57:33;;;;;;;6.72;3.38;;;;;;;1.02;66.61;101236.91;5058382;28;20265;-75
2021/03/05 06:00:00;;;;;;;3.47;3.10;;;;;;;1.10;66.42;101240.13;5060727;28;20213;-75
2021/03/05 06:02:27;;;;;;;8.55;3.92;;;;;;;1.22;65.96;101238.81;5060018;28;20256;-75
2021/03/05 06:04:54;;;;;;;3.80;2.90;;;;;;;1.16;66.05;101238.19;5059173;28;20249;-75
2021/03/05 06:07:20;;;;;;;4.57;3.45;;;;;;;1.15;65.86;101236.47;5060479;28;20234;-76
2021/03/05 06:09:49;;;;;;;3.53;2.67;;;;;;;1.25;65.70;101237.84;5060856;28;20229;-75
2021/03/05 06:12:16;;;;;;;4.03;3.20;;;;;;;1.22;66.01;101251.16;5059177;28;20285;-76
2021/03/05 06:14:43;;;;;;;4.53;3.00;;;;;;;1.27;65.59;101260.59;5060111;28;20202;-76
2021/03/05 06:17:10;;;;;;;6.35;3.25;;;;;;;1.37;65.36;101265.50;5059953;28;20281;-76
2021/03/05 06:19:36;;;;;;;7.75;3.17;;;;;;;1.44;65.05;101269.63;5059428;28;20249;-75
2021/03/05 06:22:04;;;;;;;8.13;2.90;;;;;;;1.52;64.84;101272.84;5059614;28;20230;-75
2021/03/05 06:24:43;;;;;;;6.15;2.47;;;;;;;1.26;65.58;101282.56;5060506;28;20677;-77
2021/03/05 06:27:09;;;;;;;12.10;2.83;;;;;;;1.59;65.64;101287.53;5058253;28;20297;-77
2021/03/05 06:29:41;;;;;;;3.90;2.63;;;;;;;1.57;65.53;101289.34;5060801;28;20634;-76
2021/03/05 06:32:08;;;;;;;4.90;3.50;;;;;;;1.77;64.22;101293.88;5059249;28;20855;-76
2021/03/05 06:34:44;;;;;;;3.72;2.50;;;;;;;1.97;63.40;101297.53;5058805;28;20253;-77
2021/03/05 06:37:11;;;;;;;5.93;3.65;;;;;;;1.80;63.73;101296.38;5059472;28;20234;-75
2021/03/05 06:39:37;;;;;;;4.03;2.42;;;;;;;2.87;61.62;101297.41;5060152;28;20210;-76
2021/03/05 06:42:05;;;;;;;5.15;2.50;;;;;;;4.29;56.33;101305.94;5058535;28;20272;-77
2021/03/05 06:44:32;;;;;;;4.77;2.60;;;;;;;5.78;51.97;101315.09;5059806;28;20214;-77
2021/03/05 06:47:11;;;;;;;5.30;2.10;;;;;;;6.28;49.24;101319.44;5061315;28;20476;-77
2021/03/05 06:49:37;;;;;;;9.87;2.10;;;;;;;7.21;46.80;101316.75;5062914;28;20471;-77
2021/03/05 06:52:04;;;;;;;3.17;1.90;;;;;;;7.29;46.27;101331.31;5063073;28;20504;-77
2021/03/05 06:54:31;;;;;;;8.70;2.03;;;;;;;7.94;44.51;101337.97;5062961;28;20515;-76
2021/03/05 06:56:57;;;;;;;9.27;2.40;;;;;;;9.27;41.21;101338.16;5061833;28;20556;-77
2021/03/05 06:59:25;;;;;;;4.10;2.20;;;;;;;9.01;41.72;101335.44;5063200;28;20457;-77
2021/03/05 07:01:54;;;;;;;5.03;1.77;;;;;;;8.88;41.53;101349.72;5055297;28;20592;-77
2021/03/05 07:04:23;;;;;;;5.00;1.70;;;;;;;7.75;43.87;101361.38;5061730;28;20473;-77
2021/03/05 07:07:03;;;;;;;5.60;1.90;;;;;;;8.27;43.03;101366.91;5062327;28;20500;-77
2021/03/05 07:09:31;;;;;;;4.20;1.70;;;;;;;8.77;42.99;101371.78;5044122;28;20437;-77
2021/03/05 07:11:58;;;;;;;4.07;1.83;;;;;;;8.81;41.73;101370.59;5042028;28;20504;-77
2021/03/05 07:14:31;;;;;;;5.40;1.73;;;;;;;9.75;39.60;101381.06;5060891;28;21331;-76
2021/03/05 07:16:58;;;;;;;3.33;1.57;;;;;;;10.26;38.17;101384.63;5062190;28;20484;-77
2021/03/05 07:19:27;;;;;;;4.70;1.83;;;;;;;8.93;39.98;101387.59;5055456;28;20445;-77
2021/03/05 07:21:54;;;;;;;10.57;2.80;;;;;;;7.64;43.47;101384.16;5059600;28;20480;-76
2021/03/05 07:24:22;;;;;;;5.87;2.10;;;;;;;7.57;44.30;101388.16;5063125;28;20453;-77
2021/03/05 07:27:00;;;;;;;3.07;1.63;;;;;;;7.50;44.14;101392.16;5059346;28;20468;-75
2021/03/05 07:29:27;;;;;;;7.47;2.57;;;;;;;7.03;45.83;101399.34;5062519;28;20444;-77
2021/03/05 07:32:01;;;;;;;6.07;2.40;;;;;;;5.96;47.43;101403.53;5057464;28;20583;-76
2021/03/05 07:34:30;;;;;;;6.07;2.00;;;;;;;5.91;48.16;101409.06;5061499;28;21008;-77
2021/03/05 07:36:59;;;;;;;3.63;1.97;;;;;;;6.29;47.97;101408.81;5062295;28;20515;-76
2021/03/05 07:39:27;;;;;;;7.30;2.20;;;;;;;6.54;47.31;101413.59;5062598;28;20920;-77
2021/03/05 07:41:56;;;;;;;4.90;1.67;;;;;;;8.03;43.39;101422.59;5061724;28;20472;-76
2021/03/05 07:44:24;;;;;;;2.87;1.70;;;;;;;6.97;45.50;101413.81;5062673;28;20460;-76
2021/03/05 07:46:51;;;;;;;5.80;2.00;;;;;;;6.21;48.38;101411.03;5062649;28;20465;-76
2021/03/05 07:49:24;;;;;;;5.20;2.10;;;;;;;5.73;49.45;101421.50;5061171;28;21011;-76
2021/03/05 07:51:54;;;;;;;7.00;3.27;;;;;;;4.42;52.54;101421.84;5061079;28;20480;-75
2021/03/05 07:54:45;;;;;;;2.43;2.23;;;;;;;4.54;53.59;101423.91;5061812;28;20484;-75
2021/03/05 07:57:48;;;;;;;7.60;2.60;;;;;;;5.06;52.69;101424.00;5060587;28;20498;-77
2021/03/05 08:00:36;;;;;;;4.13;2.83;;;;;;;4.42;53.59;101425.31;5060452;28;20464;-76
2021/03/05 08:03:02;;;;;;;4.43;2.80;;;;;;;4.90;52.62;101431.88;5061598;28;20449;-75
2021/03/05 08:05:34;;;;;;;5.47;2.40;;;;;;;5.06;52.06;101439.06;5061215;28;20465;-76
2021/03/05 08:08:18;;;;;;;6.10;2.90;;;;;;;4.78;52.49;101442.22;5062654;28;20552;-76
2021/03/05 08:10:47;;;;;;;5.97;2.57;;;;;;;4.50;53.45;101447.03;5058870;28;20483;-76
2021/03/05 08:13:44;;;;;;;4.47;2.83;;;;;;;4.59;53.78;101451.03;5060564;28;21151;-76
2021/03/05 08:16:41;;;;;;;4.57;3.20;;;;;;;5.30;52.59;101444.94;5061072;28;20512;-75
2021/03/05 08:19:47;;;;;;;4.20;2.57;;;;;;;6.92;48.31;101454.91;5017728;28;20453;-76
2021/03/05 08:22:17;;;;;;;4.00;2.53;;;;;;;6.91;47.32;101456.72;4999325;28;20512;-75
2021/03/05 08:24:44;;;;;;;4.77;2.47;;;;;;;8.70;42.50;101458.41;4999337;28;20640;-75
2021/03/05 08:27:29;;;;;;;5.00;2.40;;;;;;;10.17;38.80;101453.84;5007267;28;21033;-76
2021/03/05 08:30:00;;;;;;;7.47;2.60;;;;;;;8.15;43.13;101450.28;5016078;28;20461;-76
2021/03/05 08:32:46;;;;;;;6.30;2.90;;;;;;;8.34;42.89;101457.13;5014968;28;20498;-76
2021/03/05 08:35:12;;;;;;;6.03;3.03;;;;;;;8.69;42.67;101454.06;5014612;28;20473;-76
2021/03/05 08:37:40;;;;;;;5.40;2.77;;;;;;;9.71;40.39;101449.03;5018945;28;20769;-76
2021/03/05 08:40:31;;;;;;;7.37;2.80;;;;;;;11.78;35.70;101455.44;5016906;28;20462;-75
2021/03/05 08:42:58;;;;;;;6.47;2.37;;;;;;;9.36;40.01;101454.94;5019147;28;21025;-76
2021/03/05 08:45:27;;;;;;;6.77;3.10;;;;;;;9.72;39.30;101455.22;5016538;28;20481;-76
2021/03/05 08:47:55;;;;;;;3.20;2.63;;;;;;;9.77;39.18;101451.28;5017004;28;20447;-76
2021/03/05 08:50:23;;;;;;;6.37;2.83;;;;;;;10.16;38.58;101449.44;5016074;28;20474;-77
2021/03/05 08:52:51;;;;;;;5.30;3.27;;;;;;;10.91;36.76;101459.22;5031546;28;20637;-77
2021/03/05 08:55:19;;;;;;;3.63;2.70;;;;;;;10.74;36.85;101460.50;5058040;28;20444;-76
2021/03/05 08:57:48;;;;;;;7.40;2.80;;;;;;;10.31;37.79;101462.69;5060289;28;20521;-76
2021/03/05 09:00:16;;;;;;;7.63;3.40;;;;;;;11.15;36.23;101466.44;5059812;28;20461;-76
2021/03/05 09:02:44;;;;;;;8.13;3.20;;;;;;;13.67;32.36;101466.97;5060143;28;20453;-76
2021/03/05 09:05:14;;;;;;;4.67;3.00;;;;;;;14.25;30.27;101469.16;5060286;28;20457;-76
2021/03/05 09:07:48;;;;;;;4.80;3.27;;;;;;;12.61;31.86;101473.91;5061228;28;20453;-75
2021/03/05 09:10:14;;;;;;;8.37;2.83;;;;;;;11.54;34.44;101479.59;5059105;28;20441;-77
2021/03/05 09:12:55;;;;;;;8.30;3.00;;;;;;;9.67;37.65;101478.69;5060986;28;20478;-77
2021/03/05 09:15:23;;;;;;;6.83;3.07;;;;;;;10.99;36.00;101490.81;5059677;28;20517;-76
2021/03/05 09:17:50;;;;;;;9.17;2.93;;;;;;;11.15;35.42;101490.50;5058752;28;20480;-76
2021/03/05 09:20:16;;;;;;;5.57;3.10;;;;;;;9.42;39.07;101481.22;5054064;28;20540;-76
2021/03/05 09:22:43;;;;;;;6.80;2.80;;;;;;;8.21;41.18;101489.88;5060573;28;20453;-76
2021/03/05 09:25:10;;;;;;;4.50;3.20;;;;;;;7.30;43.73;101492.59;5058983;28;20449;-75
2021/03/05 09:27:38;;;;;;;8.17;2.90;;;;;;;9.86;38.71;101476.50;5059396;28;20863;-75
2021/03/05 09:30:16;;;;;;;8.40;3.43;;;;;;;12.54;33.69;101482.56;5058755;28;20944;-76
2021/03/05 09:32:47;;;;;;;7.63;2.90;;;;;;;11.90;33.72;101480.44;5059232;28;20886;-76
2021/03/05 09:35:13;;;;;;;5.50;2.97;;;;;;;12.42;32.96;101489.75;5056395;28;20519;-76
2021/03/05 09:37:40;;;;;;;6.47;2.77;;;;;;;13.16;31.95;101492.69;5059550;28;20487;-75
2021/03/05 09:40:08;;;;;;;4.27;2.53;;;;;;;14.80;29.56;101495.72;5059402;28;20437;-75
2021/03/05 09:42:50;;;;;;;6.13;2.80;;;;;;;12.82;31.74;101503.50;5044499;28;20495;-76
2021/03/05 09:45:33;;;;;;;4.50;2.90;;;;;;;12.79;32.55;101513.63;5059008;28;20487;-75
2021/03/05 09:47:59;;;;;;;3.90;2.57;;;;;;;14.48;30.14;101509.34;5058531;28;20976;-76
2021/03/05 09:50:26;;;;;;;4.20;2.70;;;;;;;14.42;29.04;101501.78;5059589;28;20480;-76
2021/03/05 09:52:53;;;;;;;3.30;2.33;;;;;;;14.40;28.83;101509.16;5060046;28;20465;-76
2021/03/05 09:55:27;;;;;;;6.60;2.80;;;;;;;13.11;31.11;101512.84;5057629;28;20460;-76
2021/03/05 09:57:54;;;;;;;4.70;2.10;;;;;;;13.21;30.35;101507.56;5059713;28;21308;-76
2021/03/05 10:00:31;;;;;;;2.80;2.10;;;;;;;13.40;30.35;101520.34;5059373;28;20462;-77
2021/03/05 10:03:08;;;;;;;3.40;2.10;;;;;;;13.52;30.61;101522.00;5058747;28;20730;-76
2021/03/05 10:05:37;;;;;;;3.70;2.23;;;;;;;13.72;30.45;101521.19;5059052;28;20476;-75
2021/03/05 10:08:13;;;;;;;6.77;1.97;;;;;;;13.66;30.02;101527.09;5059187;28;20433;-76
2021/03/05 10:11:05;;;;;;;6.00;2.13;;;;;;;13.66;29.97;101524.41;5059284;28;20475;-76
2021/03/05 10:13:52;;;;;;;3.03;1.73;;;;;;;14.59;29.51;101525.41;5057206;28;20449;-76
2021/03/05 10:16:21;;;;;;;3.23;2.00;;;;;;;14.43;29.71;101527.72;5053040;28;20463;-76
2021/03/05 10:18:49;;;;;;;3.03;1.90;;;;;;;13.99;30.54;101524.34;5059167;28;20453;-75
2021/03/05 10:21:17;;;;;;;4.20;1.93;;;;;;;14.89;28.57;101531.72;5059397;28;20819;-76
2021/03/05 10:23:44;;;;;;;4.83;2.03;;;;;;;13.62;29.73;101544.44;5063098;28;20465;-76
2021/03/05 10:26:18;;;;;;;3.43;1.53;;;;;;;14.27;29.14;101531.75;5063227;28;20476;-77
2021/03/05 10:28:46;;;;;;;2.77;1.90;;;;;;;14.15;28.92;101530.13;5063790;28;20473;-76
2021/03/05 10:31:13;;;;;;;6.43;1.77;;;;;;;14.06;28.53;101544.34;5061254;28;20480;-76
2021/03/05 10:33:41;;;;;;;5.00;1.63;;;;;;;13.15;29.90;101552.75;5061820;28;20444;-76
2021/03/05 10:36:10;;;;;;;2.50;1.77;;;;;;;12.11;30.65;101551.16;5059085;28;20469;-76
2021/03/05 10:38:37;;;;;;;6.70;1.70;;;;;;;11.54;32.56;101558.13;5063235;28;20479;-76
2021/03/05 10:41:04;;;;;;;4.77;1.70;;;;;;;12.19;30.58;101559.47;5063102;28;20494;-76
2021/03/05 10:43:31;;;;;;;2.40;1.60;;;;;;;11.58;31.43;101548.91;5063524;28;20452;-77
2021/03/05 10:45:57;;;;;;;4.10;1.33;;;;;;;11.83;32.70;101560.44;5062637;28;20512;-76
2021/03/05 10:48:23;;;;;;;5.03;1.57;;;;;;;11.33;32.13;101559.72;5063953;28;20894;-77
2021/03/05 10:50:50;;;;;;;3.03;1.30;;;;;;;11.64;31.89;101567.16;5062076;28;21014;-76
2021/03/05 10:53:17;;;;;;;2.97;1.60;;;;;;;11.15;32.19;101570.81;5062033;28;20491;-77
2021/03/05 10:55:43;;;;;;;3.10;1.30;;;;;;;12.93;29.76;101579.63;5061807;28;20464;-77
2021/03/05 10:58:10;;;;;;;3.80;1.77;;;;;;;12.33;30.42;101585.22;5061705;28;20510;-77
2021/03/05 11:00:36;;;;;;;3.37;1.50;;;;;;;12.62;31.11;101576.72;5061385;28;20483;-76
2021/03/05 11:03:03;;;;;;;3.70;1.57;;;;;;;11.31;31.88;101563.34;5063835;28;20490;-76
2021/03/05 11:05:29;;;;;;;4.03;1.30;;;;;;;10.91;32.96;101579.63;5061878;28;20476;-76
2021/03/05 11:07:55;;;;;;;6.33;1.30;;;;;;;11.19;32.03;101590.19;5062102;28;20449;-77
2021/03/05 11:10:23;;;;;;;4.60;2.10;;;;;;;10.53;32.38;101588.56;5062746;28;20476;-77
2021/03/05 11:12:49;;;;;;;4.23;1.47;;;;;;;12.55;29.76;101584.41;5062742;28;20465;-76
2021/03/05 11:15:17;;;;;;;12.93;2.07;;;;;;;11.69;31.34;101588.28;5058690;28;20456;-77
2021/03/05 11:17:44;;;;;;;2.00;1.50;;;;;;;11.86;31.15;101589.69;5062425;28;20839;-77
2021/03/05 11:20:12;;;;;;;1.93;1.40;;;;;;;11.65;30.84;101597.50;5061558;28;20444;-77
2021/03/05 11:22:39;;;;;;;3.17;1.43;;;;;;;11.83;31.21;101595.28;5062456;28;20650;-78
2021/03/05 11:25:06;;;;;;;2.00;1.13;;;;;;;10.96;32.49;101602.56;5062251;28;20525;-77
2021/03/05 11:27:35;;;;;;;2.90;1.37;;;;;;;10.07;32.04;101604.19;5062427;28;20456;-77
2021/03/05 11:30:03;;;;;;;1.70;1.47;;;;;;;10.08;33.01;101617.47;5062137;28;20461;-76
2021/03/05 11:32:31;;;;;;;2.30;1.23;;;;;;;10.03;32.53;101606.22;5061598;28;20465;-77
2021/03/05 11:34:58;;;;;;;1.20;1.10;;;;;;;10.68;30.58;101607.19;5060976;28;20457;-77
2021/03/05 11:37:24;;;;;;;2.50;1.17;;;;;;;9.68;32.51;101613.94;5061101;28;20575;-76